Time;durP1;ratioP1;P1;durP2;ratioP2;P2;SDS_P1;SDS_P2;PMS_P1;PMS_P2;Temp;Humidity;BMP_temperature;BMP_pressure;BME280_temperature;BME280_humidity;BME280_pressure;Samples;Min_cycle;Max_cycle;Signal;HPM_P1;HPM_P2
2021/12/28 00:00:06;;;;;;;8.40;5.00;;;7.50;99.90;;;;;;7320539;32;20120;-66
2021/12/28 00:04:08;;;;;;;7.82;5.90;;;7.60;99.90;;;;;;7321258;32;20470;-66
2021/12/28 00:08:10;;;;;;;7.75;5.10;;;7.50;99.90;;;;;;7316856;32;20757;-67
2021/12/28 00:12:11;;;;;;;6.60;4.47;;;7.60;99.90;;;;;;7316697;32;20261;-67
2021/12/28 00:16:32;;;;;;;8.55;4.70;;;7.70;99.90;;;;;;7322008;32;22352;-67
2021/12/28 00:20:43;;;;;;;5.30;4.15;;;7.70;99.90;;;;;;7320644;32;20725;-67
2021/12/28 00:24:47;;;;;;;5.62;3.83;;;7.60;99.90;;;;;;7321913;32;20128;-67
2021/12/28 00:28:50;;;;;;;6.85;3.67;;;7.50;99.90;;;;;;7314181;32;20221;-67
2021/12/28 00:32:53;;;;;;;6.28;3.78;;;7.40;99.90;;;;;;7314355;32;20519;-67
2021/12/28 00:36:55;;;;;;;5.50;3.47;;;7.50;99.90;;;;;;7321601;32;20100;-66
2021/12/28 00:41:03;;;;;;;4.45;3.25;;;7.40;99.90;;;;;;7315800;32;20514;-66
2021/12/28 00:45:05;;;;;;;4.20;2.78;;;7.40;99.90;;;;;;7325069;32;20104;-66
2021/12/28 00:49:06;;;;;;;7.87;2.97;;;7.40;99.90;;;;;;7322469;32;20442;-66
2021/12/28 00:53:08;;;;;;;3.60;2.05;;;7.40;99.90;;;;;;7328019;32;20122;-66
2021/12/28 00:57:10;;;;;;;5.25;2.22;;;7.40;99.90;;;;;;7324552;32;20598;-67
2021/12/28 01:01:12;;;;;;;6.07;2.60;;;7.40;99.90;;;;;;7324431;32;20197;-66
2021/12/28 01:05:14;;;;;;;8.45;2.50;;;7.30;99.90;;;;;;7337646;32;20183;-66
2021/12/28 01:09:15;;;;;;;8.38;2.70;;;7.30;99.90;;;;;;7331343;32;20130;-67
2021/12/28 01:13:19;;;;;;;13.00;2.35;;;7.40;99.90;;;;;;7325675;32;20412;-67
2021/12/28 01:17:21;;;;;;;9.98;2.20;;;7.40;99.90;;;;;;7333925;32;20335;-67
2021/12/28 01:21:22;;;;;;;8.73;2.70;;;7.40;99.90;;;;;;7324200;32;20122;-67
2021/12/28 01:25:25;;;;;;;6.28;2.40;;;7.40;99.90;;;;;;7335875;32;20119;-66
2021/12/28 01:29:27;;;;;;;6.07;1.85;;;7.50;99.90;;;;;;7346931;32;20135;-67
2021/12/28 01:33:29;;;;;;;10.18;2.12;;;7.50;99.90;;;;;;7330988;32;20555;-66
2021/12/28 01:37:30;;;;;;;10.48;2.15;;;7.40;99.90;;;;;;7333976;32;20110;-66
2021/12/28 01:41:33;;;;;;;11.68;1.95;;;7.50;99.90;;;;;;7340529;32;20619;-66
2021/12/28 01:45:48;;;;;;;7.15;1.98;;;7.50;99.90;;;;;;7335087;32;20480;-67
2021/12/28 01:49:50;;;;;;;9.85;2.35;;;7.60;99.90;;;;;;7341821;32;20570;-66
2021/12/28 01:53:57;;;;;;;10.32;1.77;;;7.50;99.90;;;;;;7334470;32;20224;-66
2021/12/28 01:57:59;;;;;;;6.95;1.80;;;7.60;99.90;;;;;;7334796;32;20126;-67
2021/12/28 02:02:01;;;;;;;8.43;1.98;;;7.60;99.90;;;;;;7327140;32;20150;-66
2021/12/28 02:06:04;;;;;;;11.55;1.95;;;7.70;99.90;;;;;;7326855;32;20140;-66
2021/12/28 02:10:06;;;;;;;8.43;2.10;;;7.80;99.90;;;;;;7326613;32;20103;-67
2021/12/28 02:14:09;;;;;;;9.77;1.90;;;7.80;99.90;;;;;;7327124;32;20111;-66
2021/12/28 02:18:14;;;;;;;9.23;1.92;;;7.90;99.90;;;;;;7332235;32;20095;-66
2021/12/28 02:22:16;;;;;;;12.52;1.90;;;8.00;99.90;;;;;;7340925;32;20121;-66
2021/12/28 02:26:17;;;;;;;10.38;2.35;;;8.00;99.90;;;;;;7336591;32;20125;-67
2021/12/28 02:30:21;;;;;;;13.50;1.92;;;7.90;99.90;;;;;;7322877;32;20125;-67
2021/12/28 02:34:24;;;;;;;12.20;3.33;;;8.00;99.90;;;;;;7327656;32;20213;-67
2021/12/28 02:38:26;;;;;;;14.57;2.03;;;8.00;99.90;;;;;;7336212;32;20130;-67
2021/12/28 02:42:27;;;;;;;13.02;2.67;;;8.00;99.90;;;;;;7318573;32;20104;-67
2021/12/28 02:46:29;;;;;;;18.40;2.78;;;8.10;99.90;;;;;;7324884;32;20103;-67
2021/12/28 02:50:36;;;;;;;12.00;2.35;;;8.10;99.90;;;;;;7336557;32;20100;-66
2021/12/28 02:54:39;;;;;;;23.37;3.40;;;8.10;99.90;;;;;;7329567;32;20121;-67
2021/12/28 02:58:47;;;;;;;14.75;2.45;;;8.10;99.90;;;;;;7326854;32;20873;-67
2021/12/28 03:02:49;;;;;;;15.55;2.50;;;8.20;99.90;;;;;;7332259;32;20110;-67
2021/12/28 03:06:51;;;;;;;15.38;2.35;;;8.20;99.90;;;;;;7330271;32;20753;-67
2021/12/28 03:10:54;;;;;;;15.13;2.37;;;8.10;99.90;;;;;;7326272;32;20238;-67
2021/12/28 03:14:56;;;;;;;21.27;2.58;;;8.20;99.90;;;;;;7325020;32;20126;-67
2021/12/28 03:19:01;;;;;;;14.55;2.37;;;8.20;99.90;;;;;;7333234;32;20117;-67
2021/12/28 03:23:04;;;;;;;16.58;2.53;;;8.20;99.90;;;;;;7333534;32;20217;-67
2021/12/28 03:27:06;;;;;;;18.37;2.45;;;8.20;99.90;;;;;;7329707;32;20137;-67
2021/12/28 03:31:11;;;;;;;14.82;2.92;;;8.30;99.90;;;;;;7333213;32;20119;-67
2021/12/28 03:35:15;;;;;;;17.75;2.67;;;8.40;99.90;;;;;;7327125;32;20115;-67
2021/12/28 03:39:17;;;;;;;17.33;2.97;;;8.40;99.90;;;;;;7322387;32;20112;-67
2021/12/28 03:43:20;;;;;;;21.02;2.40;;;8.50;99.90;;;;;;7324547;32;20093;-67
2021/12/28 03:47:21;;;;;;;14.27;2.22;;;8.50;99.90;;;;;;7331449;32;20096;-67
2021/12/28 03:51:23;;;;;;;20.62;2.87;;;8.50;99.90;;;;;;7324436;32;20107;-67
2021/12/28 03:55:26;;;;;;;13.93;2.60;;;8.40;99.90;;;;;;7330501;32;20657;-67
2021/12/28 03:59:28;;;;;;;17.27;2.80;;;8.40;99.90;;;;;;7336876;32;20527;-67
2021/12/28 04:03:30;;;;;;;27.67;3.22;;;8.40;99.90;;;;;;7323074;32;20190;-65
2021/12/28 04:07:32;;;;;;;20.00;2.62;;;8.40;99.90;;;;;;7333597;32;20125;-67
2021/12/28 04:11:33;;;;;;;19.37;2.80;;;8.40;99.90;;;;;;7335692;32;20474;-65
2021/12/28 04:15:35;;;;;;;19.08;2.90;;;8.30;99.90;;;;;;7326850;32;20104;-65
2021/12/28 04:19:37;;;;;;;17.48;2.67;;;8.40;99.90;;;;;;7330782;32;20104;-65
2021/12/28 04:23:39;;;;;;;21.67;3.35;;;8.30;99.90;;;;;;7341224;32;20106;-65
2021/12/28 04:27:42;;;;;;;20.35;3.20;;;8.40;99.90;;;;;;7327887;32;20194;-65
2021/12/28 04:31:43;;;;;;;17.50;2.72;;;8.40;99.90;;;;;;7326493;32;20539;-65
2021/12/28 04:35:46;;;;;;;17.80;2.62;;;8.30;99.90;;;;;;7319203;32;20484;-66
2021/12/28 04:39:47;;;;;;;16.02;2.25;;;8.30;99.90;;;;;;7321118;32;20119;-66
2021/12/28 04:43:49;;;;;;;22.70;3.20;;;8.30;99.90;;;;;;7321196;32;20127;-65
2021/12/28 04:47:51;;;;;;;22.02;2.95;;;8.40;99.90;;;;;;7324037;32;20111;-65
2021/12/28 04:51:52;;;;;;;20.17;3.28;;;8.40;99.90;;;;;;7327077;32;20645;-66
2021/12/28 04:55:54;;;;;;;22.48;2.85;;;8.40;99.90;;;;;;7323256;32;20221;-66
2021/12/28 04:59:56;;;;;;;14.75;2.58;;;8.40;99.90;;;;;;7324687;32;20238;-65
2021/12/28 05:03:58;;;;;;;14.18;2.47;;;8.40;99.90;;;;;;7334235;32;20799;-66
2021/12/28 05:07:59;;;;;;;15.98;2.25;;;8.40;99.90;;;;;;7337000;32;20217;-66
2021/12/28 05:12:02;;;;;;;17.75;2.83;;;8.40;99.90;;;;;;7338069;32;20130;-66
2021/12/28 05:16:03;;;;;;;17.73;2.50;;;8.40;99.90;;;;;;7321316;32;20141;-66
2021/12/28 05:20:07;;;;;;;15.75;2.30;;;8.40;99.90;;;;;;7334768;32;20137;-67
2021/12/28 05:24:08;;;;;;;15.98;3.17;;;8.40;99.90;;;;;;7333550;32;20107;-67
2021/12/28 05:28:10;;;;;;;15.48;2.33;;;8.40;99.90;;;;;;7332264;32;20218;-67
2021/12/28 05:32:12;;;;;;;19.15;2.25;;;8.40;99.90;;;;;;7330336;32;20107;-67
2021/12/28 05:36:14;;;;;;;13.52;2.10;;;8.40;99.90;;;;;;7326606;32;20116;-67
2021/12/28 05:40:16;;;;;;;15.18;2.37;;;8.40;99.90;;;;;;7335890;32;20130;-67
2021/12/28 05:44:18;;;;;;;19.12;2.78;;;8.40;99.90;;;;;;7334300;32;20194;-67
2021/12/28 05:48:20;;;;;;;15.85;2.90;;;8.40;99.90;;;;;;7326537;32;20225;-67
2021/12/28 05:52:22;;;;;;;10.27;1.83;;;8.40;99.90;;;;;;7335134;32;20123;-67
2021/12/28 05:56:23;;;;;;;19.30;2.42;;;8.40;99.90;;;;;;7331591;32;20134;-67
2021/12/28 06:00:28;;;;;;;17.60;3.90;;;8.40;99.90;;;;;;7328193;32;20203;-67
2021/12/28 06:04:33;;;;;;;12.30;2.83;;;8.50;99.90;;;;;;7330646;32;20221;-67
2021/12/28 06:08:35;;;;;;;12.63;3.22;;;8.50;99.90;;;;;;7333599;32;20115;-67
2021/12/28 06:12:37;;;;;;;17.10;3.62;;;8.60;99.90;;;;;;7329058;32;20107;-67
2021/12/28 06:16:39;;;;;;;12.55;2.83;;;8.50;99.90;;;;;;7329909;32;20719;-67
2021/12/28 06:20:41;;;;;;;19.52;4.00;;;8.50;99.90;;;;;;7327419;32;20198;-66
2021/12/28 06:24:43;;;;;;;11.63;3.72;;;8.50;99.90;;;;;;7318594;32;20199;-68
2021/12/28 06:28:44;;;;;;;16.02;3.20;;;8.50;99.90;;;;;;7339912;32;20133;-66
2021/12/28 06:32:46;;;;;;;9.55;3.33;;;8.50;99.90;;;;;;7334810;32;20121;-66
2021/12/28 06:36:48;;;;;;;11.85;3.33;;;8.50;99.90;;;;;;7336790;32;20119;-66
2021/12/28 06:40:50;;;;;;;13.70;3.58;;;8.50;99.90;;;;;;7328165;32;20104;-66
2021/12/28 06:44:52;;;;;;;13.95;3.50;;;8.40;99.90;;;;;;7330609;32;20112;-66
2021/12/28 06:48:54;;;;;;;13.07;3.22;;;8.40;99.90;;;;;;7331227;32;20727;-66
2021/12/28 06:52:56;;;;;;;11.38;3.67;;;8.40;99.90;;;;;;7332160;32;20604;-66
2021/12/28 06:56:57;;;;;;;14.95;3.12;;;8.40;99.90;;;;;;7336135;32;20108;-66
2021/12/28 07:00:59;;;;;;;11.63;2.97;;;8.50;99.90;;;;;;7327921;32;20119;-65
2021/12/28 07:05:02;;;;;;;11.50;3.37;;;8.40;99.90;;;;;;7343695;32;20104;-66
2021/12/28 07:09:04;;;;;;;11.02;3.30;;;8.40;99.90;;;;;;7333727;32;20148;-66
2021/12/28 07:13:05;;;;;;;12.43;2.78;;;8.30;99.90;;;;;;7342193;32;20494;-66
2021/12/28 07:17:07;;;;;;;8.00;2.55;;;8.50;99.90;;;;;;7329793;32;20135;-66
2021/12/28 07:21:08;;;;;;;10.95;2.85;;;8.50;99.90;;;;;;7336164;32;20213;-66
2021/12/28 07:25:11;;;;;;;11.05;3.05;;;8.50;99.90;;;;;;7328555;32;20153;-66
2021/12/28 07:29:13;;;;;;;8.50;2.17;;;8.50;99.90;;;;;;7328201;32;20194;-66
2021/12/28 07:33:15;;;;;;;10.07;1.98;;;8.50;99.90;;;;;;7335634;32;20134;-67
2021/12/28 07:37:17;;;;;;;10.50;2.53;;;8.60;99.90;;;;;;7328811;32;20440;-66
2021/12/28 07:41:18;;;;;;;7.25;2.15;;;8.60;99.90;;;;;;7326586;32;20119;-64
2021/12/28 07:45:20;;;;;;;8.30;2.03;;;8.50;99.90;;;;;;7330163;32;20162;-65
2021/12/28 07:49:22;;;;;;;6.20;1.92;;;8.50;99.90;;;;;;7328475;32;20764;-64
2021/12/28 07:53:24;;;;;;;7.87;1.55;;;8.50;99.90;;;;;;7322189;32;20115;-64
2021/12/28 07:57:25;;;;;;;5.93;1.75;;;8.50;99.90;;;;;;7327308;32;20765;-64
2021/12/28 08:01:27;;;;;;;8.55;1.77;;;8.40;99.90;;;;;;7316412;32;20199;-64
2021/12/28 08:05:30;;;;;;;4.53;1.42;;;8.40;99.90;;;;;;7322141;32;20107;-66
2021/12/28 08:09:32;;;;;;;7.37;1.90;;;8.40;99.90;;;;;;7326962;32;20200;-63
2021/12/28 08:13:34;;;;;;;5.95;2.05;;;8.30;99.90;;;;;;7329943;32;20126;-64
2021/12/28 08:17:36;;;;;;;4.28;1.60;;;8.30;99.90;;;;;;7326522;32;20523;-66
2021/12/28 08:21:38;;;;;;;9.82;1.80;;;8.50;99.90;;;;;;7322430;32;20135;-66
2021/12/28 08:25:40;;;;;;;7.72;1.65;;;8.60;99.90;;;;;;7325970;32;20139;-64
2021/12/28 08:29:42;;;;;;;4.90;1.20;;;8.80;99.90;;;;;;7317488;32;20107;-64
2021/12/28 08:33:44;;;;;;;5.65;1.50;;;8.80;99.90;;;;;;7321932;32;20115;-63
2021/12/28 08:37:45;;;;;;;8.05;1.50;;;8.80;99.90;;;;;;7323846;32;20123;-63
2021/12/28 08:41:47;;;;;;;5.28;1.40;;;8.70;99.90;;;;;;7327661;32;20687;-64
2021/12/28 08:45:49;;;;;;;5.25;1.65;;;8.80;99.90;;;;;;7337363;32;20203;-63
2021/12/28 08:49:51;;;;;;;8.05;1.45;;;8.80;99.90;;;;;;7327354;32;20103;-63
2021/12/28 08:53:53;;;;;;;4.68;1.45;;;8.70;99.90;;;;;;7315973;32;20203;-63
2021/12/28 08:57:55;;;;;;;7.12;1.70;;;8.70;99.90;;;;;;7322098;32;20140;-63
2021/12/28 09:01:56;;;;;;;8.00;1.85;;;8.70;99.90;;;;;;7321475;32;20126;-64
2021/12/28 09:06:00;;;;;;;6.43;1.70;;;8.70;99.90;;;;;;7329963;32;20118;-64
2021/12/28 09:10:04;;;;;;;5.70;1.42;;;8.80;99.90;;;;;;7322056;32;20503;-63
2021/12/28 09:14:06;;;;;;;5.80;1.33;;;8.90;99.90;;;;;;7324167;32;20139;-63
2021/12/28 09:18:08;;;;;;;8.40;2.42;;;8.90;99.90;;;;;;7323119;32;20107;-64
2021/12/28 09:22:10;;;;;;;5.45;1.33;;;9.00;99.90;;;;;;7326614;32;20501;-64
2021/12/28 09:26:12;;;;;;;8.13;1.50;;;9.20;99.90;;;;;;7329457;32;20107;-65
2021/12/28 09:30:14;;;;;;;7.12;1.67;;;9.10;99.90;;;;;;7326674;32;20198;-64
2021/12/28 09:34:16;;;;;;;4.45;1.37;;;9.10;99.90;;;;;;7331539;32;20130;-64
2021/12/28 09:38:30;;;;;;;10.18;2.12;;;9.10;99.90;;;;;;7330097;32;20145;-64
2021/12/28 09:42:32;;;;;;;5.65;1.30;;;9.20;99.90;;;;;;7322678;32;20706;-65
2021/12/28 09:46:34;;;;;;;4.87;1.83;;;9.20;99.90;;;;;;7334079;32;20534;-66
2021/12/28 09:50:39;;;;;;;5.37;1.75;;;9.30;99.90;;;;;;7332095;32;20103;-66
2021/12/28 09:54:41;;;;;;;5.62;1.60;;;9.40;99.90;;;;;;7329502;32;20112;-64
2021/12/28 09:58:43;;;;;;;4.00;1.80;;;9.40;99.90;;;;;;7316509;32;20231;-65
2021/12/28 10:02:45;;;;;;;4.87;1.60;;;9.40;99.90;;;;;;7321719;32;20107;-63
2021/12/28 10:06:47;;;;;;;5.78;1.77;;;9.30;99.90;;;;;;7314473;32;20358;-63
2021/12/28 10:10:49;;;;;;;3.65;1.60;;;9.30;99.90;;;;;;7324424;32;20111;-64
2021/12/28 10:14:54;;;;;;;6.07;2.12;;;9.10;99.90;;;;;;7318509;32;20784;-67
2021/12/28 10:19:16;;;;;;;6.07;1.80;;;9.10;99.90;;;;;;7330331;32;20911;-65
2021/12/28 10:23:23;;;;;;;4.97;1.65;;;9.10;99.90;;;;;;7324933;32;20121;-64
2021/12/28 10:27:26;;;;;;;4.12;2.00;;;9.10;99.90;;;;;;7334643;32;20120;-64
2021/12/28 10:31:28;;;;;;;4.25;1.70;;;9.10;99.90;;;;;;7331094;32;20469;-64
2021/12/28 10:35:38;;;;;;;2.97;1.60;;;9.20;99.90;;;;;;7331208;32;20187;-63
2021/12/28 10:39:44;;;;;;;5.05;1.60;;;9.10;99.90;;;;;;7326956;32;20523;-64
2021/12/28 10:43:50;;;;;;;5.23;1.70;;;9.10;99.90;;;;;;7321599;32;20166;-63
2021/12/28 10:47:53;;;;;;;4.00;1.67;;;9.10;99.90;;;;;;7316451;32;20549;-64
2021/12/28 10:51:54;;;;;;;4.18;1.40;;;9.10;99.90;;;;;;7324505;32;20232;-63
2021/12/28 10:55:59;;;;;;;4.43;1.85;;;9.10;99.90;;;;;;7318414;32;20112;-65
2021/12/28 11:00:42;;;;;;;3.62;2.05;;;9.20;99.90;;;;;;7316861;32;20237;-64
2021/12/28 11:04:44;;;;;;;2.45;1.60;;;9.30;99.90;;;;;;7243327;32;20242;-63
2021/12/28 11:08:49;;;;;;;4.32;1.92;;;9.40;99.90;;;;;;7279303;32;20726;-63
2021/12/28 11:12:51;;;;;;;4.45;2.00;;;9.40;99.90;;;;;;7343231;32;20103;-63
2021/12/28 11:16:55;;;;;;;6.68;1.90;;;9.30;99.90;;;;;;7333644;32;20115;-63
2021/12/28 11:21:14;;;;;;;4.05;2.08;;;9.30;99.90;;;;;;7342064;32;20466;-64
2021/12/28 11:25:20;;;;;;;3.10;1.85;;;9.30;99.90;;;;;;7325266;32;20107;-63
2021/12/28 11:29:28;;;;;;;3.10;2.03;;;9.40;99.90;;;;;;7337240;32;20135;-64
2021/12/28 11:33:50;;;;;;;6.60;1.87;;;9.30;99.90;;;;;;7341083;32;20139;-63
2021/12/28 11:37:52;;;;;;;4.18;1.80;;;9.30;99.90;;;;;;7338825;32;20103;-63
2021/12/28 11:41:56;;;;;;;3.42;2.10;;;9.30;99.90;;;;;;7338099;32;20727;-63
2021/12/28 11:45:58;;;;;;;3.58;1.98;;;9.40;99.90;;;;;;7345088;32;20146;-63
2021/12/28 11:50:00;;;;;;;4.43;2.03;;;9.40;99.90;;;;;;7333292;32;20126;-64
2021/12/28 11:54:06;;;;;;;4.00;2.05;;;9.40;99.90;;;;;;7327609;32;20111;-64
2021/12/28 11:58:08;;;;;;;4.13;2.10;;;9.40;99.90;;;;;;7342096;32;20130;-63
2021/12/28 12:02:13;;;;;;;7.25;2.30;;;9.30;99.90;;;;;;7346511;32;20225;-63
2021/12/28 12:06:15;;;;;;;5.97;2.30;;;9.30;99.90;;;;;;7324486;32;20222;-69
2021/12/28 12:10:20;;;;;;;3.35;1.95;;;9.40;99.90;;;;;;7321380;32;20502;-68
2021/12/28 12:14:21;;;;;;;3.35;1.98;;;9.40;99.90;;;;;;7322838;32;20111;-68
2021/12/28 12:18:43;;;;;;;3.47;1.92;;;9.40;99.90;;;;;;7324261;32;20459;-65
2021/12/28 12:23:12;;;;;;;6.05;2.42;;;9.30;99.90;;;;;;7324323;32;20202;-65
2021/12/28 12:28:00;;;;;;;3.58;1.95;;;9.40;99.90;;;;;;7322269;32;20964;-64
2021/12/28 12:32:01;;;;;;;4.70;1.67;;;9.30;99.90;;;;;;7240214;32;20177;-66
2021/12/28 12:36:08;;;;;;;4.60;1.12;;;9.30;99.90;;;;;;7283588;32;20112;-65
2021/12/28 12:40:09;;;;;;;6.82;1.30;;;9.30;99.90;;;;;;7319947;32;20772;-65
2021/12/28 12:44:21;;;;;;;8.02;1.40;;;9.40;99.90;;;;;;7314667;32;20246;-64
2021/12/28 12:48:36;;;;;;;5.93;1.90;;;9.50;99.90;;;;;;7321813;32;20850;-64
2021/12/28 12:52:38;;;;;;;8.80;1.70;;;9.60;99.90;;;;;;7318229;32;20111;-62
2021/12/28 12:56:54;;;;;;;11.27;2.35;;;9.60;99.90;;;;;;7319814;32;20154;-64
2021/12/28 13:00:56;;;;;;;13.43;2.28;;;9.50;99.90;;;;;;7318252;32;20261;-64
2021/12/28 13:05:01;;;;;;;17.37;1.92;;;9.50;99.90;;;;;;7324768;32;20679;-64
2021/12/28 13:09:06;;;;;;;17.77;2.87;;;9.50;99.90;;;;;;7319689;32;20142;-63
2021/12/28 13:13:08;;;;;;;20.10;2.83;;;9.50;99.90;;;;;;7324930;32;20119;-64
2021/12/28 13:17:14;;;;;;;17.70;2.53;;;9.40;99.90;;;;;;7324180;32;20129;-63
2021/12/28 13:21:20;;;;;;;19.10;3.12;;;9.40;99.90;;;;;;7320654;32;20234;-63
2021/12/28 13:25:31;;;;;;;20.48;2.67;;;9.40;99.90;;;;;;7322640;32;20107;-63
2021/12/28 13:29:36;;;;;;;21.80;3.10;;;9.40;99.90;;;;;;7322453;32;20119;-62
2021/12/28 13:33:38;;;;;;;17.12;3.20;;;9.40;99.90;;;;;;7317261;32;20484;-65
2021/12/28 13:37:57;;;;;;;15.82;2.92;;;9.40;99.90;;;;;;7324508;32;20762;-63
2021/12/28 13:41:58;;;;;;;18.15;2.55;;;9.50;99.90;;;;;;7324881;32;20112;-64
2021/12/28 13:46:06;;;;;;;18.40;2.65;;;9.60;99.90;;;;;;7319636;32;20112;-64
2021/12/28 13:50:12;;;;;;;19.25;3.12;;;9.80;99.90;;;;;;7318933;32;20571;-63
2021/12/28 13:54:14;;;;;;;27.83;4.10;;;10.00;99.90;;;;;;7322490;32;20107;-67
2021/12/28 13:58:29;;;;;;;22.95;3.80;;;10.20;99.90;;;;;;7320657;32;20127;-65
2021/12/28 14:02:31;;;;;;;19.95;3.15;;;10.30;99.90;;;;;;7323767;32;20198;-64
2021/12/28 14:06:36;;;;;;;19.35;3.22;;;10.20;99.90;;;;;;7312468;32;20120;-63
2021/12/28 14:10:37;;;;;;;19.62;3.28;;;10.10;99.90;;;;;;7323084;32;20111;-63
2021/12/28 14:14:48;;;;;;;28.80;3.87;;;10.00;99.90;;;;;;7315381;32;20154;-64
2021/12/28 14:18:52;;;;;;;25.75;3.62;;;9.90;99.90;;;;;;7322625;32;20130;-63
2021/12/28 14:22:56;;;;;;;25.23;3.80;;;10.00;99.90;;;;;;7319181;32;20308;-64
2021/12/28 14:26:58;;;;;;;28.25;4.28;;;9.90;99.90;;;;;;7326985;32;20154;-65
2021/12/28 14:31:21;;;;;;;26.00;4.10;;;9.90;99.90;;;;;;7319848;32;20237;-64
2021/12/28 14:35:27;;;;;;;20.48;3.72;;;9.90;99.90;;;;;;7318977;32;20747;-64
2021/12/28 14:39:44;;;;;;;27.63;4.57;;;9.80;99.90;;;;;;7317735;32;20136;-64
2021/12/28 14:43:46;;;;;;;26.73;4.53;;;9.90;99.90;;;;;;7328723;32;20157;-64
2021/12/28 14:47:48;;;;;;;21.48;3.53;;;9.90;99.90;;;;;;7324072;32;20138;-65
2021/12/28 14:51:51;;;;;;;22.40;3.47;;;9.80;99.90;;;;;;7311384;32;20130;-64
2021/12/28 14:55:57;;;;;;;20.23;2.33;;;9.80;99.90;;;;;;7324239;32;20805;-63
2021/12/28 15:00:37;;;;;;;19.92;2.78;;;9.80;99.90;;;;;;7320234;32;20111;-63
2021/12/28 15:04:39;;;;;;;15.13;3.30;;;9.70;99.90;;;;;;7250167;32;20532;-63
2021/12/28 15:08:41;;;;;;;11.80;1.65;;;9.50;99.90;;;;;;7271161;32;20126;-64
2021/12/28 15:12:46;;;;;;;17.58;2.30;;;9.10;99.90;;;;;;7318299;32;20139;-63
2021/12/28 15:16:49;;;;;;;10.70;1.33;;;8.90;99.90;;;;;;7328258;32;20115;-63
2021/12/28 15:20:51;;;;;;;10.25;2.15;;;8.70;99.90;;;;;;7329204;32;20141;-64
2021/12/28 15:24:53;;;;;;;11.55;1.95;;;8.60;99.90;;;;;;7323563;32;20479;-64
2021/12/28 15:28:54;;;;;;;12.82;2.10;;;8.50;99.90;;;;;;7331713;32;20261;-64
2021/12/28 15:32:56;;;;;;;11.15;1.70;;;8.40;99.90;;;;;;7308390;32;20119;-64
2021/12/28 15:36:58;;;;;;;9.43;1.85;;;8.20;99.90;;;;;;7321430;32;20115;-63
2021/12/28 15:41:00;;;;;;;9.45;1.37;;;8.10;99.90;;;;;;7323474;32;20817;-63
2021/12/28 15:45:02;;;;;;;11.10;1.95;;;8.00;99.90;;;;;;7316873;32;20116;-64
2021/12/28 15:49:09;;;;;;;10.88;1.48;;;8.00;99.90;;;;;;7315787;32;20133;-63
2021/12/28 15:53:11;;;;;;;12.57;1.92;;;7.90;99.90;;;;;;7319572;32;20630;-63
2021/12/28 15:57:13;;;;;;;13.90;2.28;;;7.80;99.90;;;;;;7322964;32;20226;-62
2021/12/28 16:01:17;;;;;;;7.00;1.05;;;7.80;99.90;;;;;;7306935;32;20192;-63
2021/12/28 16:05:19;;;;;;;6.10;1.33;;;7.60;99.90;;;;;;7323612;32;20111;-62
2021/12/28 16:09:21;;;;;;;7.45;1.12;;;7.50;99.90;;;;;;7329113;32;20432;-63
2021/12/28 16:13:22;;;;;;;5.20;0.82;;;7.50;99.90;;;;;;7331753;32;20111;-63
2021/12/28 16:17:24;;;;;;;8.38;0.85;;;7.40;99.90;;;;;;7331288;32;20276;-63
2021/12/28 16:21:26;;;;;;;5.80;1.10;;;7.30;99.90;;;;;;7336729;32;20553;-63
2021/12/28 16:25:27;;;;;;;5.43;0.75;;;7.20;99.90;;;;;;7334537;32;20129;-63
2021/12/28 16:29:29;;;;;;;4.65;0.80;;;7.20;99.90;;;;;;7343636;32;20108;-63
2021/12/28 16:33:34;;;;;;;3.00;0.77;;;7.20;99.90;;;;;;7331013;32;20111;-63
2021/12/28 16:37:35;;;;;;;7.30;1.20;;;7.10;99.90;;;;;;7338286;32;20206;-63
2021/12/28 16:41:38;;;;;;;6.30;0.77;;;7.10;99.90;;;;;;7331991;32;20103;-63
2021/12/28 16:45:40;;;;;;;4.18;0.85;;;7.00;99.90;;;;;;7330522;32;20140;-62
2021/12/28 16:49:42;;;;;;;4.18;1.02;;;7.00;99.90;;;;;;7331915;32;20138;-63
2021/12/28 16:53:44;;;;;;;3.92;0.88;;;7.00;99.90;;;;;;7328652;32;20111;-63
2021/12/28 16:57:45;;;;;;;4.40;0.70;;;7.00;99.90;;;;;;7329182;32;20222;-63
2021/12/28 17:01:56;;;;;;;6.72;0.95;;;6.90;99.90;;;;;;7330367;32;20111;-63
2021/12/28 17:05:58;;;;;;;6.93;1.15;;;6.90;99.90;;;;;;7334877;32;20125;-64
2021/12/28 17:10:00;;;;;;;5.05;0.90;;;6.80;99.90;;;;;;7343583;32;20133;-64
2021/12/28 17:14:03;;;;;;;4.18;1.10;;;6.80;99.90;;;;;;7335656;32;20107;-64
2021/12/28 17:18:05;;;;;;;6.70;2.45;;;6.80;99.90;;;;;;7331805;32;20536;-63
2021/12/28 17:22:07;;;;;;;9.77;2.40;;;6.80;99.90;;;;;;7330592;32;20168;-64
2021/12/28 17:26:09;;;;;;;8.20;2.25;;;6.70;99.90;;;;;;7325186;32;20202;-64
2021/12/28 17:30:12;;;;;;;7.00;2.28;;;6.70;99.90;;;;;;7318594;32;20139;-63
2021/12/28 17:34:14;;;;;;;7.47;2.08;;;6.80;99.90;;;;;;7326654;32;20514;-64
2021/12/28 17:38:17;;;;;;;4.35;1.37;;;6.80;99.90;;;;;;7326239;32;20123;-64
2021/12/28 17:42:19;;;;;;;5.22;1.30;;;6.80;99.90;;;;;;7324885;32;20129;-63
2021/12/28 17:46:21;;;;;;;5.80;1.40;;;6.80;99.90;;;;;;7325858;32;20656;-63
2021/12/28 17:50:24;;;;;;;7.80;1.60;;;6.80;99.90;;;;;;7330714;32;20116;-62
2021/12/28 17:54:25;;;;;;;5.93;2.15;;;6.90;99.90;;;;;;7328413;32;20206;-62
2021/12/28 17:58:27;;;;;;;3.62;1.15;;;6.90;99.90;;;;;;7337818;32;20141;-62
2021/12/28 18:02:29;;;;;;;5.53;1.00;;;7.00;99.90;;;;;;7327386;32;20130;-61
2021/12/28 18:06:31;;;;;;;4.53;0.95;;;7.30;99.90;;;;;;7344211;32;20379;-65
2021/12/28 18:10:35;;;;;;;4.62;1.00;;;7.20;99.90;;;;;;7312317;32;20754;-64
2021/12/28 18:14:37;;;;;;;5.72;1.10;;;7.20;99.90;;;;;;7317826;32;20151;-64
2021/12/28 18:18:39;;;;;;;6.68;1.10;;;7.10;99.90;;;;;;7321444;32;20551;-64
2021/12/28 18:22:40;;;;;;;3.55;0.85;;;7.20;99.90;;;;;;7317251;32;20112;-63
2021/12/28 18:26:42;;;;;;;3.15;1.00;;;7.10;99.90;;;;;;7317531;32;20112;-64
2021/12/28 18:30:45;;;;;;;4.00;1.05;;;7.10;99.90;;;;;;7321277;32;20111;-63
2021/12/28 18:34:47;;;;;;;4.72;1.00;;;7.00;99.90;;;;;;7317448;32;20129;-64
2021/12/28 18:38:48;;;;;;;4.35;1.10;;;7.10;99.90;;;;;;7309681;32;20111;-62
2021/12/28 18:42:51;;;;;;;4.10;1.02;;;7.00;99.90;;;;;;7321834;32;20112;-62
2021/12/28 18:46:52;;;;;;;3.72;1.20;;;7.10;99.90;;;;;;7312256;32;20111;-61
2021/12/28 18:50:57;;;;;;;6.15;1.62;;;7.20;99.90;;;;;;7307930;32;20127;-64
2021/12/28 18:54:59;;;;;;;8.10;1.77;;;7.30;99.90;;;;;;7316594;32;20150;-65
2021/12/28 18:59:01;;;;;;;4.35;1.23;;;7.40;99.90;;;;;;7319474;32;20142;-63
2021/12/28 19:03:02;;;;;;;5.62;1.60;;;7.50;99.90;;;;;;7312626;32;20198;-65
2021/12/28 19:07:04;;;;;;;6.12;1.73;;;7.50;99.90;;;;;;7314068;32;20107;-64
2021/12/28 19:11:07;;;;;;;7.07;1.77;;;7.50;99.90;;;;;;7312773;32;20217;-65
2021/12/28 19:15:10;;;;;;;4.72;1.80;;;7.50;99.90;;;;;;7309709;32;20143;-66
2021/12/28 19:19:12;;;;;;;5.82;2.03;;;7.40;99.90;;;;;;7323116;32;20207;-65
2021/12/28 19:23:15;;;;;;;7.05;2.87;;;7.50;99.90;;;;;;7321258;32;20194;-66
2021/12/28 19:27:17;;;;;;;6.12;2.83;;;7.60;99.90;;;;;;7313805;32;20667;-64
2021/12/28 19:31:21;;;;;;;6.82;3.20;;;7.60;99.90;;;;;;7318534;32;20111;-63
2021/12/28 19:35:23;;;;;;;8.07;3.10;;;7.70;99.90;;;;;;7320306;32;20111;-61
2021/12/28 19:39:25;;;;;;;6.80;3.20;;;7.60;99.90;;;;;;7316045;32;20277;-63
2021/12/28 19:43:27;;;;;;;6.65;3.40;;;7.70;99.90;;;;;;7291799;32;20111;-66
2021/12/28 19:47:29;;;;;;;9.65;4.78;;;7.70;99.90;;;;;;7310945;32;20510;-63
2021/12/28 19:51:32;;;;;;;8.00;4.45;;;7.70;99.90;;;;;;7320087;32;20634;-64
2021/12/28 19:55:34;;;;;;;8.15;5.20;;;7.80;99.90;;;;;;7321483;32;20234;-63
2021/12/28 19:59:36;;;;;;;8.07;5.40;;;7.80;99.90;;;;;;7320852;32;20190;-64
2021/12/28 20:03:39;;;;;;;8.43;5.90;;;7.80;99.90;;;;;;7333647;32;20173;-65
2021/12/28 20:07:42;;;;;;;7.85;6.03;;;7.90;99.90;;;;;;7333186;32;20108;-62
2021/12/28 20:11:44;;;;;;;10.25;6.78;;;7.80;99.90;;;;;;7328963;32;20622;-63
2021/12/28 20:15:46;;;;;;;10.00;7.20;;;7.90;99.90;;;;;;7320159;32;20195;-63
2021/12/28 20:19:48;;;;;;;10.50;7.35;;;7.80;99.90;;;;;;7315633;32;20532;-63
2021/12/28 20:23:50;;;;;;;9.57;6.95;;;7.80;99.90;;;;;;7332841;32;20139;-64
2021/12/28 20:27:55;;;;;;;9.52;5.53;;;7.90;99.90;;;;;;7336416;32;20470;-63
2021/12/28 20:31:57;;;;;;;9.43;6.22;;;7.90;99.90;;;;;;7314075;32;20568;-63
2021/12/28 20:35:59;;;;;;;9.73;5.78;;;7.90;99.90;;;;;;7328256;32;20115;-63
2021/12/28 20:40:01;;;;;;;7.32;5.10;;;8.10;99.90;;;;;;7327840;32;20133;-64
2021/12/28 20:44:03;;;;;;;7.37;5.62;;;8.00;99.90;;;;;;7331132;32;20103;-64
2021/12/28 20:48:07;;;;;;;7.68;5.10;;;8.10;99.90;;;;;;7325016;32;20119;-64
2021/12/28 20:52:09;;;;;;;6.93;5.20;;;8.10;99.90;;;;;;7329411;32;20141;-63
2021/12/28 20:56:20;;;;;;;7.97;5.35;;;8.10;99.90;;;;;;7331938;32;20228;-63
2021/12/28 21:00:25;;;;;;;7.95;5.37;;;8.20;99.90;;;;;;7327100;32;20531;-63
2021/12/28 21:04:27;;;;;;;6.65;5.53;;;8.20;99.90;;;;;;7325791;32;20119;-64
2021/12/28 21:08:29;;;;;;;8.13;7.00;;;8.20;99.90;;;;;;7328554;32;20130;-63
2021/12/28 21:12:30;;;;;;;9.73;6.65;;;8.30;99.90;;;;;;7328838;32;20111;-63
2021/12/28 21:16:32;;;;;;;8.45;7.03;;;8.20;99.90;;;;;;7328532;32;20103;-62